ARG197 SAME-SAEZ
Flight info
| Callsign | ARG197 |
|---|---|
| Flight time | N/A |
| Altitude | 37000 |
| Route | KAMUV2G KAMUV UT670 SNT |
| Aircraft | B738/M-SDE2E3FGHIRWXY/LB1 |
Departure
| Time | 2026-04-26 17:59 |
|---|---|
| Airport | Governor Francisco Gabrielli International Airport (SAME) |
Arrival
| Time | N/A |
|---|---|
| Airport | Ezeiza International Airport - Ministro Pistarini (SAEZ) |
| Time | Latitude | Longitude | Altitude | Speed | Heading |
|---|---|---|---|---|---|
| 2026-04-26 17:41 | -32.82918 | -68.79781 | 2311 ft | 0 kts | 270° |
| 2026-04-26 17:53 | -32.82918 | -68.79775 | 2311 ft | 3 kts | 270° |
| 2026-04-26 17:53 | -32.82918 | -68.79744 | 2311 ft | 4 kts | 278° |
| 2026-04-26 17:53 | -32.82925 | -68.79714 | 2311 ft | 4 kts | 299° |
| 2026-04-26 17:54 | -32.82946 | -68.79685 | 2315 ft | 0 kts | 322° |
| 2026-04-26 17:56 | -32.82943 | -68.79688 | 2314 ft | 4 kts | 322° |
| 2026-04-26 17:56 | -32.82797 | -68.79710 | 2316 ft | 18 kts | 1° |
| 2026-04-26 17:57 | -32.82669 | -68.79581 | 2309 ft | 14 kts | 83° |
| 2026-04-26 17:57 | -32.82603 | -68.79505 | 2309 ft | 15 kts | 8° |
| 2026-04-26 17:57 | -32.82479 | -68.79503 | 2308 ft | 22 kts | 2° |
| 2026-04-26 17:57 | -32.82291 | -68.79501 | 2309 ft | 32 kts | 1° |
| 2026-04-26 17:58 | -32.81960 | -68.79290 | 2307 ft | 9 kts | 120° |
| 2026-04-26 17:59 | -32.82288 | -68.79274 | 2314 ft | 84 kts | 181° |
| 2026-04-26 17:59 | -32.83142 | -68.79284 | 2319 ft | 159 kts | 179° |
| 2026-04-26 17:59 | -32.84371 | -68.79294 | 2907 ft | 184 kts | 176° |
| 2026-04-26 17:59 | -32.85639 | -68.79235 | 4109 ft | 183 kts | 174° |
| 2026-04-26 18:00 | -32.86955 | -68.79223 | 4938 ft | 192 kts | 176° |
| 2026-04-26 18:00 | -32.88737 | -68.79241 | 5833 ft | 201 kts | 179° |
| 2026-04-26 18:00 | -32.90207 | -68.79247 | 6227 ft | 216 kts | 178° |
| 2026-04-26 18:00 | -32.91211 | -68.79030 | 6655 ft | 221 kts | 157° |
| 2026-04-26 18:01 | -32.92485 | -68.77943 | 7180 ft | 237 kts | 132° |
| 2026-04-26 18:01 | -32.93332 | -68.76224 | 7770 ft | 247 kts | 106° |
| 2026-04-26 18:01 | -32.93506 | -68.74111 | 8085 ft | 272 kts | 78° |
| 2026-04-26 18:01 | -32.93050 | -68.71848 | 8546 ft | 289 kts | 76° |
| 2026-04-26 18:02 | -32.92688 | -68.69419 | 9046 ft | 305 kts | 82° |
| 2026-04-26 18:02 | -32.92551 | -68.67738 | 9527 ft | 310 kts | 85° |
| 2026-04-26 18:02 | -32.92464 | -68.64326 | 10652 ft | 313 kts | 89° |
| 2026-04-26 18:02 | -32.92472 | -68.61727 | 11412 ft | 317 kts | 91° |
| 2026-04-26 18:03 | -32.92498 | -68.59079 | 12163 ft | 321 kts | 91° |
| 2026-04-26 18:03 | -32.92503 | -68.56371 | 12615 ft | 338 kts | 90° |
| 2026-04-26 18:03 | -32.92465 | -68.53493 | 12947 ft | 355 kts | 90° |
| 2026-04-26 18:03 | -32.92413 | -68.50514 | 13535 ft | 364 kts | 90° |
| 2026-04-26 18:04 | -32.92358 | -68.47489 | 14282 ft | 367 kts | 90° |
| 2026-04-26 18:04 | -32.92306 | -68.44436 | 14950 ft | 371 kts | 91° |
| 2026-04-26 18:04 | -32.92256 | -68.41342 | 15570 ft | 377 kts | 91° |
| 2026-04-26 18:05 | -32.92156 | -68.35030 | 16832 ft | 387 kts | 92° |
| 2026-04-26 18:05 | -32.92106 | -68.31808 | 17459 ft | 392 kts | 92° |
| 2026-04-26 18:05 | -32.92053 | -68.28546 | 18094 ft | 397 kts | 92° |
| 2026-04-26 18:05 | -32.92000 | -68.25245 | 18681 ft | 402 kts | 92° |
| 2026-04-26 18:06 | -32.91945 | -68.21906 | 19239 ft | 405 kts | 92° |
| 2026-04-26 18:06 | -32.91888 | -68.18537 | 19817 ft | 409 kts | 92° |
| 2026-04-26 18:06 | -32.91831 | -68.15135 | 20355 ft | 414 kts | 92° |
| 2026-04-26 18:06 | -32.91773 | -68.11696 | 20891 ft | 418 kts | 92° |
| 2026-04-26 18:07 | -32.91714 | -68.08224 | 21429 ft | 422 kts | 92° |
| 2026-04-26 18:07 | -32.91653 | -68.04707 | 21956 ft | 426 kts | 92° |
| 2026-04-26 18:07 | -32.91590 | -68.01169 | 22479 ft | 430 kts | 92° |
| 2026-04-26 18:07 | -32.91548 | -67.98805 | 22823 ft | 433 kts | 92° |
| 2026-04-26 18:08 | -32.91460 | -67.93990 | 23505 ft | 438 kts | 92° |
| 2026-04-26 18:08 | -32.91392 | -67.90348 | 23957 ft | 442 kts | 92° |
| 2026-04-26 18:08 | -32.91323 | -67.86681 | 24408 ft | 444 kts | 92° |
| 2026-04-26 18:08 | -32.91252 | -67.82994 | 24866 ft | 447 kts | 92° |
| 2026-04-26 18:09 | -32.91180 | -67.79290 | 25302 ft | 449 kts | 92° |
| 2026-04-26 18:09 | -32.91107 | -67.75559 | 25730 ft | 452 kts | 91° |
| 2026-04-26 18:09 | -32.91032 | -67.71812 | 26151 ft | 454 kts | 92° |
| 2026-04-26 18:09 | -32.91236 | -67.68070 | 26537 ft | 452 kts | 104° |
| 2026-04-26 18:10 | -32.91897 | -67.64417 | 26982 ft | 452 kts | 108° |
| 2026-04-26 18:10 | -32.92660 | -67.60787 | 27358 ft | 454 kts | 109° |
| 2026-04-26 18:10 | -32.93453 | -67.57127 | 27723 ft | 458 kts | 109° |
| 2026-04-26 18:10 | -32.94237 | -67.53443 | 28112 ft | 461 kts | 109° |
| 2026-04-26 18:11 | -32.95004 | -67.49714 | 28438 ft | 465 kts | 108° |
| 2026-04-26 18:11 | -32.95756 | -67.45955 | 28794 ft | 468 kts | 108° |
| 2026-04-26 18:11 | -32.96497 | -67.42168 | 29179 ft | 471 kts | 108° |
| 2026-04-26 18:11 | -32.97232 | -67.38364 | 29535 ft | 473 kts | 107° |
| 2026-04-26 18:12 | -32.97969 | -67.34531 | 29882 ft | 476 kts | 107° |
| 2026-04-26 18:12 | -32.98708 | -67.30685 | 30216 ft | 478 kts | 107° |
| 2026-04-26 18:12 | -32.99451 | -67.26811 | 30499 ft | 481 kts | 107° |
| 2026-04-26 18:12 | -33.00199 | -67.22912 | 30789 ft | 483 kts | 107° |
| 2026-04-26 18:13 | -33.00948 | -67.19004 | 31033 ft | 486 kts | 107° |
| 2026-04-26 18:13 | -33.01693 | -67.15112 | 31215 ft | 490 kts | 107° |
| 2026-04-26 18:13 | -33.02453 | -67.11138 | 31488 ft | 492 kts | 107° |
| 2026-04-26 18:13 | -33.02965 | -67.08455 | 31682 ft | 493 kts | 107° |
| 2026-04-26 18:14 | -33.03971 | -67.03165 | 32053 ft | 495 kts | 107° |
| 2026-04-26 18:14 | -33.04731 | -66.99163 | 32325 ft | 497 kts | 107° |
| 2026-04-26 18:14 | -33.05497 | -66.95130 | 32544 ft | 500 kts | 107° |
| 2026-04-26 18:14 | -33.06262 | -66.91084 | 32781 ft | 501 kts | 107° |
| 2026-04-26 18:15 | -33.07028 | -66.87030 | 33110 ft | 502 kts | 107° |
| 2026-04-26 18:15 | -33.07795 | -66.82967 | 33355 ft | 503 kts | 107° |
| 2026-04-26 18:15 | -33.08563 | -66.78891 | 33664 ft | 503 kts | 107° |
| 2026-04-26 18:15 | -33.09329 | -66.74822 | 34030 ft | 502 kts | 107° |
| 2026-04-26 18:16 | -33.10093 | -66.70764 | 34318 ft | 501 kts | 107° |
| 2026-04-26 18:16 | -33.11621 | -66.62629 | 34692 ft | 504 kts | 107° |
| 2026-04-26 18:16 | -33.12386 | -66.58540 | 34916 ft | 505 kts | 107° |
| 2026-04-26 18:17 | -33.13149 | -66.54452 | 35136 ft | 506 kts | 107° |
| 2026-04-26 18:17 | -33.13917 | -66.50338 | 35236 ft | 510 kts | 107° |
| 2026-04-26 18:17 | -33.14686 | -66.46204 | 35448 ft | 511 kts | 107° |
| 2026-04-26 18:17 | -33.15453 | -66.42066 | 35709 ft | 510 kts | 107° |
| 2026-04-26 18:18 | -33.16218 | -66.37931 | 35951 ft | 510 kts | 107° |
| 2026-04-26 18:18 | -33.16982 | -66.33799 | 36197 ft | 510 kts | 107° |
| 2026-04-26 18:18 | -33.17744 | -66.29667 | 36466 ft | 509 kts | 107° |
| 2026-04-26 18:18 | -33.18504 | -66.25539 | 36680 ft | 510 kts | 107° |
| 2026-04-26 18:19 | -33.19268 | -66.21391 | 36814 ft | 513 kts | 107° |
| 2026-04-26 18:19 | -33.20034 | -66.17223 | 36935 ft | 515 kts | 107° |
| 2026-04-26 18:19 | -33.20799 | -66.13046 | 37128 ft | 515 kts | 107° |
| 2026-04-26 18:19 | -33.21566 | -66.08860 | 37148 ft | 519 kts | 107° |
| 2026-04-26 18:20 | -33.23111 | -66.00435 | 37163 ft | 519 kts | 107° |
| 2026-04-26 18:20 | -33.24381 | -65.93468 | 37160 ft | 513 kts | 107° |
| 2026-04-26 18:21 | -33.26149 | -65.83737 | 37174 ft | 513 kts | 106° |
| 2026-04-26 18:21 | -33.27659 | -65.75402 | 37171 ft | 514 kts | 106° |
| 2026-04-26 18:22 | -33.29166 | -65.67046 | 37175 ft | 516 kts | 106° |
| 2026-04-26 18:22 | -33.30662 | -65.58711 | 37161 ft | 517 kts | 106° |
| 2026-04-26 18:23 | -33.32165 | -65.50298 | 37169 ft | 518 kts | 106° |
| 2026-04-26 18:23 | -33.33666 | -65.41865 | 37167 ft | 519 kts | 106° |
| 2026-04-26 18:24 | -33.35163 | -65.33421 | 37161 ft | 519 kts | 106° |
| 2026-04-26 18:24 | -33.36655 | -65.24969 | 37167 ft | 520 kts | 106° |
| 2026-04-26 18:25 | -33.38146 | -65.16488 | 37165 ft | 520 kts | 106° |
| 2026-04-26 18:25 | -33.39631 | -65.08005 | 37189 ft | 521 kts | 106° |
| 2026-04-26 18:26 | -33.41112 | -64.99503 | 37163 ft | 522 kts | 106° |
| 2026-04-26 18:26 | -33.42588 | -64.91002 | 37152 ft | 522 kts | 105° |
| 2026-04-26 18:27 | -33.44047 | -64.82557 | 37151 ft | 522 kts | 105° |
| 2026-04-26 18:27 | -33.45512 | -64.74046 | 37148 ft | 521 kts | 105° |
| 2026-04-26 18:28 | -33.46970 | -64.65532 | 37155 ft | 521 kts | 105° |
| 2026-04-26 18:28 | -33.48424 | -64.57019 | 37151 ft | 521 kts | 105° |
| 2026-04-26 18:29 | -33.49843 | -64.48504 | 37157 ft | 522 kts | 105° |
| 2026-04-26 18:29 | -33.51211 | -64.39966 | 37150 ft | 522 kts | 105° |
| 2026-04-26 18:30 | -33.52572 | -64.31410 | 37146 ft | 522 kts | 105° |
| 2026-04-26 18:30 | -33.53934 | -64.22863 | 37142 ft | 522 kts | 105° |
| 2026-04-26 18:31 | -33.55285 | -64.14368 | 37141 ft | 522 kts | 105° |
| 2026-04-26 18:31 | -33.56639 | -64.05819 | 37131 ft | 520 kts | 105° |
| 2026-04-26 18:32 | -33.57978 | -63.97314 | 37126 ft | 518 kts | 104° |
| 2026-04-26 18:32 | -33.59307 | -63.88843 | 37133 ft | 516 kts | 104° |
| 2026-04-26 18:33 | -33.60626 | -63.80391 | 37127 ft | 515 kts | 104° |
| 2026-04-26 18:33 | -33.61939 | -63.71945 | 37128 ft | 515 kts | 104° |
| 2026-04-26 18:34 | -33.63246 | -63.63498 | 37130 ft | 515 kts | 104° |
| 2026-04-26 18:34 | -33.64550 | -63.55028 | 37128 ft | 517 kts | 104° |
| 2026-04-26 18:35 | -33.65853 | -63.46520 | 37123 ft | 519 kts | 104° |
| 2026-04-26 18:35 | -33.67156 | -63.37976 | 37106 ft | 522 kts | 104° |
| 2026-04-26 18:36 | -33.68459 | -63.29385 | 37117 ft | 524 kts | 104° |
| 2026-04-26 18:36 | -33.69763 | -63.20750 | 37162 ft | 527 kts | 104° |
| 2026-04-26 18:37 | -33.71067 | -63.12068 | 37098 ft | 529 kts | 104° |
| 2026-04-26 18:37 | -33.72362 | -63.03406 | 37096 ft | 530 kts | 104° |
| 2026-04-26 18:38 | -33.73681 | -62.94696 | 37094 ft | 530 kts | 104° |
| 2026-04-26 18:38 | -33.75023 | -62.85999 | 37092 ft | 529 kts | 104° |
| 2026-04-26 18:39 | -33.76356 | -62.77293 | 37080 ft | 529 kts | 104° |
| 2026-04-26 18:39 | -33.77675 | -62.68601 | 37083 ft | 528 kts | 104° |
| 2026-04-26 18:40 | -33.78988 | -62.59909 | 37110 ft | 528 kts | 104° |
| 2026-04-26 18:40 | -33.80296 | -62.51208 | 37074 ft | 528 kts | 104° |
| 2026-04-26 18:41 | -33.81594 | -62.42521 | 37070 ft | 528 kts | 104° |
| 2026-04-26 18:41 | -33.82887 | -62.33830 | 37066 ft | 528 kts | 103° |
| 2026-04-26 18:42 | -33.84174 | -62.25139 | 37061 ft | 528 kts | 103° |
| 2026-04-26 18:42 | -33.85458 | -62.16429 | 37047 ft | 529 kts | 103° |
| 2026-04-26 18:43 | -33.86726 | -62.07774 | 37063 ft | 529 kts | 103° |
| 2026-04-26 18:43 | -33.88008 | -61.98977 | 37073 ft | 531 kts | 103° |
| 2026-04-26 18:44 | -33.89273 | -61.90264 | 37043 ft | 532 kts | 103° |
| 2026-04-26 18:44 | -33.90541 | -61.81474 | 37043 ft | 533 kts | 103° |
| 2026-04-26 18:45 | -33.91806 | -61.72664 | 37044 ft | 534 kts | 103° |
| 2026-04-26 18:45 | -33.93067 | -61.63855 | 37037 ft | 534 kts | 103° |
| 2026-04-26 18:46 | -33.94327 | -61.55035 | 37028 ft | 534 kts | 103° |
| 2026-04-26 18:46 | -33.95369 | -61.47702 | 37026 ft | 534 kts | 103° |
| 2026-04-26 18:47 | -33.96618 | -61.38870 | 37047 ft | 535 kts | 103° |
| 2026-04-26 18:47 | -33.97850 | -61.30047 | 37014 ft | 534 kts | 103° |
| 2026-04-26 18:48 | -33.99067 | -61.21242 | 36998 ft | 533 kts | 103° |
| 2026-04-26 18:48 | -33.99677 | -61.16814 | 36548 ft | 537 kts | 103° |
| 2026-04-26 18:48 | -34.00286 | -61.12386 | 36036 ft | 535 kts | 103° |
| 2026-04-26 18:49 | -34.00889 | -61.07980 | 35605 ft | 531 kts | 103° |
| 2026-04-26 18:49 | -34.01487 | -61.03601 | 35209 ft | 527 kts | 102° |
| 2026-04-26 18:49 | -34.02080 | -60.99253 | 34805 ft | 524 kts | 102° |
| 2026-04-26 18:49 | -34.02667 | -60.94931 | 34396 ft | 521 kts | 102° |
| 2026-04-26 18:50 | -34.03252 | -60.90621 | 33975 ft | 519 kts | 102° |
| 2026-04-26 18:50 | -34.03832 | -60.86339 | 33581 ft | 516 kts | 102° |
| 2026-04-26 18:50 | -34.04406 | -60.82078 | 33123 ft | 514 kts | 103° |
| 2026-04-26 18:50 | -34.04977 | -60.77838 | 32698 ft | 510 kts | 103° |
| 2026-04-26 18:51 | -34.05542 | -60.73633 | 32285 ft | 507 kts | 103° |
| 2026-04-26 18:51 | -34.06102 | -60.69452 | 31890 ft | 503 kts | 103° |
| 2026-04-26 18:51 | -34.06655 | -60.65305 | 31516 ft | 500 kts | 103° |
| 2026-04-26 18:51 | -34.07205 | -60.61178 | 31120 ft | 497 kts | 103° |
| 2026-04-26 18:52 | -34.07749 | -60.57074 | 30743 ft | 494 kts | 103° |
| 2026-04-26 18:52 | -34.08291 | -60.52988 | 30367 ft | 491 kts | 104° |
| 2026-04-26 18:52 | -34.08828 | -60.48926 | 29974 ft | 488 kts | 104° |
| 2026-04-26 18:52 | -34.09360 | -60.44890 | 29520 ft | 485 kts | 103° |
| 2026-04-26 18:53 | -34.09887 | -60.40880 | 29098 ft | 482 kts | 103° |
| 2026-04-26 18:53 | -34.10408 | -60.36904 | 28690 ft | 478 kts | 103° |
| 2026-04-26 18:53 | -34.10924 | -60.32955 | 28291 ft | 475 kts | 104° |
| 2026-04-26 18:53 | -34.11436 | -60.29034 | 27911 ft | 471 kts | 104° |
| 2026-04-26 18:54 | -34.11935 | -60.25192 | 27570 ft | 469 kts | 104° |
| 2026-04-26 18:54 | -34.12440 | -60.21309 | 27144 ft | 468 kts | 105° |
| 2026-04-26 18:54 | -34.12942 | -60.17439 | 26755 ft | 465 kts | 105° |
| 2026-04-26 18:54 | -34.13439 | -60.13595 | 26348 ft | 463 kts | 104° |
| 2026-04-26 18:55 | -34.13932 | -60.09763 | 25967 ft | 461 kts | 104° |
| 2026-04-26 18:55 | -34.14423 | -60.05943 | 25584 ft | 459 kts | 104° |
| 2026-04-26 18:55 | -34.14910 | -60.02141 | 25182 ft | 458 kts | 105° |
| 2026-04-26 18:55 | -34.15396 | -59.98344 | 24797 ft | 457 kts | 105° |
| 2026-04-26 18:56 | -34.15880 | -59.94557 | 24404 ft | 456 kts | 105° |
| 2026-04-26 18:56 | -34.16360 | -59.90783 | 24008 ft | 455 kts | 105° |
| 2026-04-26 18:56 | -34.16839 | -59.87011 | 23611 ft | 454 kts | 104° |
| 2026-04-26 18:56 | -34.17316 | -59.83243 | 23170 ft | 453 kts | 104° |
| 2026-04-26 18:57 | -34.17790 | -59.79490 | 22762 ft | 451 kts | 104° |
| 2026-04-26 18:57 | -34.18102 | -59.77012 | 22500 ft | 450 kts | 104° |
| 2026-04-26 18:57 | -34.18726 | -59.72036 | 21979 ft | 446 kts | 104° |
| 2026-04-26 18:57 | -34.19189 | -59.68330 | 21621 ft | 446 kts | 105° |
| 2026-04-26 18:58 | -34.19654 | -59.64628 | 21182 ft | 446 kts | 105° |
| 2026-04-26 18:58 | -34.20116 | -59.60928 | 20787 ft | 445 kts | 105° |
| 2026-04-26 18:58 | -34.20575 | -59.57241 | 20394 ft | 443 kts | 105° |
| 2026-04-26 18:58 | -34.21030 | -59.53571 | 20025 ft | 441 kts | 105° |
| 2026-04-26 18:59 | -34.21484 | -59.49903 | 19648 ft | 440 kts | 105° |
| 2026-04-26 18:59 | -34.22093 | -59.46365 | 19263 ft | 430 kts | 117° |
| 2026-04-26 18:59 | -34.23237 | -59.43062 | 18921 ft | 414 kts | 130° |
| 2026-04-26 18:59 | -34.24757 | -59.40199 | 18551 ft | 395 kts | 143° |
| 2026-04-26 19:00 | -34.26503 | -59.37675 | 18203 ft | 390 kts | 144° |
| 2026-04-26 19:00 | -34.28248 | -59.35164 | 17781 ft | 389 kts | 144° |
| 2026-04-26 19:00 | -34.29977 | -59.32666 | 17420 ft | 386 kts | 144° |
| 2026-04-26 19:00 | -34.31694 | -59.30172 | 17094 ft | 385 kts | 143° |
| 2026-04-26 19:01 | -34.33381 | -59.27715 | 16714 ft | 383 kts | 143° |
| 2026-04-26 19:01 | -34.35075 | -59.25237 | 16360 ft | 381 kts | 142° |
| 2026-04-26 19:01 | -34.36754 | -59.22776 | 16011 ft | 378 kts | 142° |
| 2026-04-26 19:01 | -34.38421 | -59.20327 | 15680 ft | 375 kts | 142° |
| 2026-04-26 19:02 | -34.40072 | -59.17899 | 15331 ft | 373 kts | 141° |
| 2026-04-26 19:02 | -34.41714 | -59.15484 | 14990 ft | 370 kts | 141° |
| 2026-04-26 19:02 | -34.43343 | -59.13086 | 14652 ft | 367 kts | 141° |
| 2026-04-26 19:02 | -34.44438 | -59.11472 | 14427 ft | 366 kts | 141° |
| 2026-04-26 19:03 | -34.46567 | -59.08335 | 14004 ft | 362 kts | 140° |
| 2026-04-26 19:03 | -34.48157 | -59.05991 | 13694 ft | 359 kts | 138° |